ADDS METAR Data INFO
IDs: Format: Raw Decoded Include TAF

Data at: 1453 UTC 11 Dec 2017

KEKY 111356Z AUTO 00000KT 10SM CLR 03/M01 A3021 RMK AO2 SLP255 T00331006
KEKY 111256Z AUTO 20003KT 10SM CLR M02/M03 A3022 RMK AO2 SLP256 T10171028 FZRANO
KEKY 111156Z AUTO 00000KT 10SM CLR M02/M03 A3021 RMK AO2 SLP251 T10171033 10033 21017 56004 FZRANO
KEKY 111056Z AUTO 00000KT 10SM CLR 01/M02 A3021 RMK AO2 SLP253 T00111017 FZRANO
KEKY 110956Z AUTO 20003KT 10SM CLR 02/M02 A3021 RMK AO2 SLP253 T00171017 FZRANO
KEKY 110856Z AUTO 17004KT 10SM CLR 01/M02 A3022 RMK AO2 SLP255 T00061022 56014 FZRANO
KEKY 110756Z AUTO 21004KT 10SM CLR 03/M02 A3023 RMK AO2 SLP257 T00281022
KEKY 110656Z AUTO 21005KT 10SM CLR 03/M02 A3024 RMK AO2 SLP262 T00331022
KEKY 110556Z AUTO 20005KT 10SM CLR 03/M02 A3026 RMK AO2 SLP269 T00281022 10050 20028 400891056 58003
KEKY 110456Z AUTO 21004KT 10SM CLR 03/M02 A3027 RMK AO2 SLP273 T00331022
KEKY 110356Z AUTO 21005KT 10SM CLR 04/M02 A3028 RMK AO2 SLP279 T00391022
KEKY 110256Z AUTO 22006KT 10SM CLR 04/M02 A3027 RMK AO2 SLP274 T00441022 53002
KEKY 110156Z AUTO 19008KT 10SM CLR 04/M02 A3025 RMK AO2 SLP266 T00441022
KEKY 110056Z AUTO 19005KT 10SM CLR 04/M03 A3026 RMK AO2 SLP269 T00391028
KEKY 102356Z AUTO 20004KT 10SM CLR 05/M03 A3026 RMK AO2 SLP268 T00501033 10089 20039 55000
KEKY 102256Z AUTO 22005KT 10SM CLR 06/M03 A3026 RMK AO2 SLP269 T00611033
KEKY 102156Z AUTO 26005KT 10SM CLR 08/M03 A3026 RMK AO2 SLP267 T00831033
KEKY 102056Z AUTO 25008KT 10SM CLR 09/M03 A3026 RMK AO2 SLP269 T00891033 56021
KEKY 101956Z AUTO 23008KT 10SM CLR 08/M03 A3027 RMK AO2 SLP272 T00831033
KEKY 101856Z AUTO 23009KT 10SM CLR 08/M03 A3029 RMK AO2 SLP279 T00781033
KEKY 101756Z AUTO 28007KT 10SM CLR 07/M04 A3032 RMK AO2 SLP293 T00671039 10067 21056 58010
KEKY 101656Z AUTO 24005KT 10SM CLR 06/M03 A3035 RMK AO2 SLP301 T00561033
KEKY 101556Z AUTO VRB05KT 10SM CLR 04/M04 A3036 RMK AO2 SLP302 T00391039
KEKY 101456Z AUTO 24004KT 10SM CLR 02/M02 A3035 RMK AO2 SLP300 T00221017 53013 FZRANO
KEKY 101356Z AUTO 22003KT 10SM CLR M01/M02 A3033 RMK AO2 SLP296 T10111022 FZRANO
KEKY 101256Z AUTO 00000KT 10SM CLR M05/M06 A3033 RMK AO2 SLP293 T10501061 FZRANO
KEKY 101156Z AUTO 21003KT 10SM CLR M05/M06 A3031 RMK AO2 SLP287 70005 T10501056 10000 21050 53009 FZRANO
KEKY 101056Z AUTO 00000KT 10SM CLR M05/M07 A3030 RMK AO2 SLP280 T10501067 FZRANO
KEKY 100956Z AUTO 00000KT 10SM CLR M04/M06 A3029 RMK AO2 SLP281 T10441061 FZRANO
KEKY 100856Z AUTO 00000KT 10SM CLR M04/M06 A3029 RMK AO2 SLP279 T10441056 53011 FZRANO
KEKY 100756Z AUTO 00000KT 10SM CLR M04/M06 A3027 RMK AO2 SLP273 T10391056 FZRANO
KEKY 100656Z AUTO 00000KT 10SM CLR M03/M05 A3026 RMK AO2 SLP271 T10331050 FZRANO
KEKY 100556Z AUTO 34003KT 10SM CLR 00/M04 A3025 RMK AO2 SLP267 T00001044 10033 20000 400611039 51022 FZRANO
KEKY 100456Z AUTO 35005KT 10SM CLR 01/M04 A3024 RMK AO2 SLP264 T00111044 FZRANO
KEKY 100356Z AUTO 35009KT 10SM CLR 02/M04 A3022 RMK AO2 SLP256 T00171039 FZRANO
KEKY 100256Z AUTO 32009G14KT 10SM CLR 03/M03 A3019 RMK AO2 SLP243 T00281033 53026